Time;durP1;ratioP1;P1;durP2;ratioP2;P2;SDS_P1;SDS_P2;PMS_P1;PMS_P2;Temp;Humidity;BMP_temperature;BMP_pressure;BME280_temperature;BME280_humidity;BME280_pressure;Samples;Min_cycle;Max_cycle;Signal;HPM_P1;HPM_P2
2023/03/06 00:01:59;;;;;;;27.10;17.60;;;;;;;;;;5090927;28;20288;-79
2023/03/06 00:04:26;;;;;;;30.30;18.30;;;;;;;;;;5091640;28;20277;-79
2023/03/06 00:06:54;;;;;;;28.13;17.63;;;;;;;;;;5090845;28;20289;-79
2023/03/06 00:09:21;;;;;;;29.33;17.47;;;;;;;;;;5090790;28;20298;-79
2023/03/06 00:11:49;;;;;;;32.67;18.17;;;;;;;;;;5093873;28;20316;-79
2023/03/06 00:14:16;;;;;;;26.70;17.37;;;;;;;;;;5100320;28;20711;-79
2023/03/06 00:16:44;;;;;;;30.87;18.00;;;;;;;;;;5095301;28;20698;-78
2023/03/06 00:19:11;;;;;;;30.30;18.07;;;;;;;;;;5093293;28;20650;-79
2023/03/06 00:21:40;;;;;;;30.50;18.00;;;;;;;;;;5095297;28;20283;-79
2023/03/06 00:24:07;;;;;;;30.17;18.30;;;;;;;;;;5099923;28;20237;-79
2023/03/06 00:26:35;;;;;;;30.40;18.37;;;;;;;;;;5114924;28;20281;-79
2023/03/06 00:29:04;;;;;;;29.10;17.57;;;;;;;;;;5115346;28;20247;-79
2023/03/06 00:31:31;;;;;;;30.47;18.30;;;;;;;;;;5114926;28;20312;-79
2023/03/06 00:33:58;;;;;;;29.17;17.67;;;;;;;;;;5114750;28;20714;-79
2023/03/06 00:36:25;;;;;;;32.30;18.17;;;;;;;;;;5114892;28;20726;-78
2023/03/06 00:38:52;;;;;;;28.70;17.57;;;;;;;;;;5115129;28;20221;-79
2023/03/06 00:41:20;;;;;;;28.37;17.47;;;;;;;;;;5114910;28;20232;-79
2023/03/06 00:43:47;;;;;;;28.63;17.13;;;;;;;;;;5114926;28;20297;-79
2023/03/06 00:46:16;;;;;;;32.50;17.43;;;;;;;;;;5114440;28;20265;-79
2023/03/06 00:48:44;;;;;;;29.20;17.23;;;;;;;;;;5114830;28;20243;-79
2023/03/06 00:51:11;;;;;;;31.40;17.57;;;;;;;;;;5115102;28;20250;-79
2023/03/06 00:53:38;;;;;;;29.10;17.53;;;;;;;;;;5114593;28;20741;-79
2023/03/06 00:56:07;;;;;;;32.10;18.73;;;;;;;;;;5114447;28;20244;-78
2023/03/06 00:58:36;;;;;;;28.93;18.67;;;;;;;;;;5114555;28;20294;-78
2023/03/06 01:01:03;;;;;;;29.17;17.17;;;;;;;;;;5114294;28;20194;-79
2023/03/06 01:03:31;;;;;;;27.53;17.57;;;;;;;;;;5114531;28;20284;-78
2023/03/06 01:05:59;;;;;;;26.53;17.53;;;;;;;;;;5114261;28;20217;-79
2023/03/06 01:08:26;;;;;;;30.20;17.27;;;;;;;;;;5107437;28;20236;-78
2023/03/06 01:10:53;;;;;;;29.57;18.43;;;;;;;;;;5103802;28;20297;-78
2023/03/06 01:13:20;;;;;;;27.40;17.97;;;;;;;;;;5104335;28;20643;-79
2023/03/06 01:15:48;;;;;;;30.67;18.20;;;;;;;;;;5093631;28;20217;-79
2023/03/06 01:18:15;;;;;;;28.50;18.40;;;;;;;;;;5094259;28;20289;-79
2023/03/06 01:20:43;;;;;;;34.13;18.97;;;;;;;;;;5093981;28;20212;-79
2023/03/06 01:23:10;;;;;;;29.57;18.60;;;;;;;;;;5093415;28;20281;-79
2023/03/06 01:25:38;;;;;;;28.27;18.57;;;;;;;;;;5093658;28;20230;-79
2023/03/06 01:28:05;;;;;;;32.23;18.80;;;;;;;;;;5093802;28;20302;-79
2023/03/06 01:30:32;;;;;;;29.57;18.00;;;;;;;;;;5093131;28;20218;-80
2023/03/06 01:32:59;;;;;;;30.63;18.50;;;;;;;;;;5093590;28;20327;-79
2023/03/06 01:35:27;;;;;;;32.47;18.70;;;;;;;;;;5094074;28;20226;-79
2023/03/06 01:37:55;;;;;;;29.23;18.43;;;;;;;;;;5100766;28;20242;-79
2023/03/06 01:40:22;;;;;;;30.67;18.17;;;;;;;;;;5108665;28;20682;-79
2023/03/06 01:42:50;;;;;;;28.90;17.33;;;;;;;;;;5092986;28;20290;-79
2023/03/06 01:45:36;;;;;;;32.20;17.40;;;;;;;;;;5093433;28;20785;-79
2023/03/06 01:48:03;;;;;;;28.60;17.33;;;;;;;;;;5105788;28;20288;-78
2023/03/06 01:50:30;;;;;;;28.63;17.60;;;;;;;;;;5113630;28;20220;-79
2023/03/06 01:53:00;;;;;;;26.07;16.23;;;;;;;;;;5113123;28;20316;-79
2023/03/06 01:55:31;;;;;;;27.07;16.93;;;;;;;;;;5113442;28;20236;-79
2023/03/06 01:57:59;;;;;;;24.03;15.53;;;;;;;;;;5112742;28;20776;-78
2023/03/06 02:00:28;;;;;;;26.97;16.13;;;;;;;;;;5107035;28;20292;-79
2023/03/06 02:02:57;;;;;;;26.53;17.03;;;;;;;;;;5093012;28;20286;-80
2023/03/06 02:05:24;;;;;;;27.83;16.27;;;;;;;;;;5093240;28;20293;-79
2023/03/06 02:07:52;;;;;;;26.23;15.83;;;;;;;;;;5092957;28;20281;-79
2023/03/06 02:10:21;;;;;;;26.70;16.27;;;;;;;;;;5092741;28;21019;-79
2023/03/06 02:12:49;;;;;;;24.70;16.20;;;;;;;;;;5103770;28;20854;-78
2023/03/06 02:15:18;;;;;;;26.00;15.83;;;;;;;;;;5113294;28;20285;-79
2023/03/06 02:17:46;;;;;;;24.93;15.80;;;;;;;;;;5113021;28;20294;-78
2023/03/06 02:20:16;;;;;;;28.07;16.63;;;;;;;;;;5113002;28;20290;-78
2023/03/06 02:22:46;;;;;;;25.77;16.80;;;;;;;;;;5112868;28;20281;-79
2023/03/06 02:25:21;;;;;;;26.47;16.40;;;;;;;;;;5112872;28;20287;-79
2023/03/06 02:27:48;;;;;;;26.27;16.57;;;;;;;;;;5112771;28;20220;-79
2023/03/06 02:30:17;;;;;;;24.43;15.90;;;;;;;;;;5113328;28;20230;-78
2023/03/06 02:32:44;;;;;;;27.07;16.63;;;;;;;;;;5112810;27;20269;-79
2023/03/06 02:35:18;;;;;;;26.50;16.93;;;;;;;;;;5105434;28;20274;-79
2023/03/06 02:37:45;;;;;;;29.73;17.23;;;;;;;;;;5105078;28;20296;-78
2023/03/06 02:40:13;;;;;;;27.83;16.03;;;;;;;;;;5112785;28;20232;-79
2023/03/06 02:42:47;;;;;;;26.80;16.27;;;;;;;;;;5111504;28;20289;-79
2023/03/06 02:45:15;;;;;;;25.03;15.27;;;;;;;;;;5112409;28;20312;-79
2023/03/06 02:47:42;;;;;;;23.77;14.83;;;;;;;;;;5112587;28;20289;-78
2023/03/06 02:50:10;;;;;;;23.60;15.30;;;;;;;;;;5112607;28;20293;-78
2023/03/06 02:52:37;;;;;;;23.17;15.30;;;;;;;;;;5112226;28;20331;-79
2023/03/06 02:55:05;;;;;;;26.20;15.77;;;;;;;;;;5112298;28;20729;-79
2023/03/06 02:57:32;;;;;;;24.83;15.43;;;;;;;;;;5112349;28;20220;-78
2023/03/06 03:00:01;;;;;;;23.73;15.23;;;;;;;;;;5112193;28;20742;-78
2023/03/06 03:02:28;;;;;;;24.33;14.43;;;;;;;;;;5112548;28;20190;-78
2023/03/06 03:04:55;;;;;;;25.43;14.80;;;;;;;;;;5112152;28;20294;-79
2023/03/06 03:07:22;;;;;;;23.43;14.57;;;;;;;;;;5111868;28;20638;-79
2023/03/06 03:09:49;;;;;;;23.00;13.53;;;;;;;;;;5112109;28;20282;-79
2023/03/06 03:12:17;;;;;;;22.97;13.80;;;;;;;;;;5111613;28;20317;-79
2023/03/06 03:14:44;;;;;;;21.70;14.13;;;;;;;;;;5111866;28;20204;-79
2023/03/06 03:17:13;;;;;;;23.47;14.10;;;;;;;;;;5112175;28;20743;-79
2023/03/06 03:19:40;;;;;;;23.10;14.13;;;;;;;;;;5103479;28;20199;-78
2023/03/06 03:22:07;;;;;;;22.23;13.87;;;;;;;;;;5091592;28;20290;-78
2023/03/06 03:24:34;;;;;;;24.27;14.90;;;;;;;;;;5091065;28;20222;-79
2023/03/06 03:27:01;;;;;;;23.67;14.10;;;;;;;;;;5091684;28;20286;-79
2023/03/06 03:29:29;;;;;;;25.77;14.47;;;;;;;;;;5091574;28;20690;-79
2023/03/06 03:31:56;;;;;;;21.07;14.17;;;;;;;;;;5091187;28;20313;-77
2023/03/06 03:34:24;;;;;;;23.77;14.13;;;;;;;;;;5091413;28;20298;-79
2023/03/06 03:36:51;;;;;;;22.70;13.50;;;;;;;;;;5091575;28;20222;-78
2023/03/06 03:39:19;;;;;;;24.93;13.97;;;;;;;;;;5091127;28;20282;-79
2023/03/06 03:41:46;;;;;;;25.57;14.73;;;;;;;;;;5091800;28;20202;-79
2023/03/06 03:44:14;;;;;;;22.23;13.47;;;;;;;;;;5091195;28;20281;-79
2023/03/06 03:46:41;;;;;;;19.77;12.67;;;;;;;;;;5091013;28;20314;-79
2023/03/06 03:49:08;;;;;;;23.07;14.90;;;;;;;;;;5090904;28;20292;-79
2023/03/06 03:51:37;;;;;;;23.93;15.03;;;;;;;;;;5091319;28;20233;-78
2023/03/06 03:54:05;;;;;;;24.57;15.30;;;;;;;;;;5097408;28;20287;-78
2023/03/06 03:56:32;;;;;;;22.30;14.17;;;;;;;;;;5098139;28;20190;-78
2023/03/06 03:59:00;;;;;;;23.27;14.37;;;;;;;;;;5097998;28;20208;-79
2023/03/06 04:01:27;;;;;;;25.13;14.87;;;;;;;;;;5097696;28;20194;-78
2023/03/06 04:03:54;;;;;;;24.93;14.83;;;;;;;;;;5097620;28;20297;-79
2023/03/06 04:06:21;;;;;;;23.93;14.23;;;;;;;;;;5109461;28;20744;-79
2023/03/06 04:08:50;;;;;;;25.53;15.13;;;;;;;;;;5117419;27;20280;-79
2023/03/06 04:11:17;;;;;;;21.50;14.63;;;;;;;;;;5118582;27;20202;-78
2023/03/06 04:13:45;;;;;;;27.10;15.47;;;;;;;;;;5117945;27;20312;-79
2023/03/06 04:16:12;;;;;;;24.23;15.30;;;;;;;;;;5118139;27;20285;-78
2023/03/06 04:18:39;;;;;;;22.90;13.70;;;;;;;;;;5109402;27;20289;-78
2023/03/06 04:21:07;;;;;;;26.80;15.67;;;;;;;;;;5103392;28;20236;-77
2023/03/06 04:23:34;;;;;;;25.13;15.20;;;;;;;;;;5117733;27;20717;-79
2023/03/06 04:26:02;;;;;;;24.27;14.83;;;;;;;;;;5099823;27;20236;-78
2023/03/06 04:28:30;;;;;;;27.20;15.97;;;;;;;;;;5097900;28;20289;-79
2023/03/06 04:30:57;;;;;;;23.27;15.10;;;;;;;;;;5100373;28;20247;-79
2023/03/06 04:33:24;;;;;;;29.07;16.03;;;;;;;;;;5118037;27;20317;-79
2023/03/06 04:35:51;;;;;;;26.53;15.73;;;;;;;;;;5117799;27;20662;-79
2023/03/06 04:38:19;;;;;;;24.03;14.77;;;;;;;;;;5117590;27;20750;-78
2023/03/06 04:40:48;;;;;;;27.23;15.00;;;;;;;;;;5118123;27;20281;-78
2023/03/06 04:43:17;;;;;;;25.47;14.40;;;;;;;;;;5118279;27;20203;-79
2023/03/06 04:45:44;;;;;;;23.53;15.37;;;;;;;;;;5117910;27;20225;-78
2023/03/06 04:48:13;;;;;;;23.80;15.17;;;;;;;;;;5117815;27;20193;-79
2023/03/06 04:50:40;;;;;;;27.53;15.23;;;;;;;;;;5097620;27;20216;-78
2023/03/06 04:53:08;;;;;;;25.20;14.70;;;;;;;;;;5097033;28;20258;-79
2023/03/06 04:55:35;;;;;;;23.67;14.70;;;;;;;;;;5097592;28;20788;-79
2023/03/06 04:58:03;;;;;;;25.47;15.73;;;;;;;;;;5097718;28;20294;-78
2023/03/06 05:00:31;;;;;;;26.07;14.97;;;;;;;;;;5097223;28;20259;-78
2023/03/06 05:02:59;;;;;;;25.80;15.67;;;;;;;;;;5115408;28;20315;-78
2023/03/06 05:05:26;;;;;;;27.07;16.40;;;;;;;;;;5094434;27;20206;-79
2023/03/06 05:07:54;;;;;;;29.50;16.13;;;;;;;;;;5094275;28;20282;-78
2023/03/06 05:10:21;;;;;;;25.83;15.80;;;;;;;;;;5095651;28;20285;-78
2023/03/06 05:12:48;;;;;;;29.50;17.87;;;;;;;;;;5114167;28;20267;-78
2023/03/06 05:15:17;;;;;;;29.53;17.37;;;;;;;;;;5114505;28;20284;-78
2023/03/06 05:17:46;;;;;;;28.07;17.03;;;;;;;;;;5114523;28;20282;-79
2023/03/06 05:20:15;;;;;;;32.07;18.63;;;;;;;;;;5113765;28;20220;-78
2023/03/06 05:22:42;;;;;;;30.07;17.07;;;;;;;;;;5112032;28;20198;-78
2023/03/06 05:25:10;;;;;;;31.87;17.80;;;;;;;;;;5093394;28;20374;-79
2023/03/06 05:27:38;;;;;;;31.80;17.47;;;;;;;;;;5093763;28;20195;-79
2023/03/06 05:30:05;;;;;;;30.07;18.07;;;;;;;;;;5093831;28;20232;-78
2023/03/06 05:32:33;;;;;;;32.27;18.03;;;;;;;;;;5093495;28;20323;-79
2023/03/06 05:35:01;;;;;;;31.07;18.30;;;;;;;;;;5093318;28;20293;-78
2023/03/06 05:37:28;;;;;;;35.73;20.60;;;;;;;;;;5093714;28;20280;-78
2023/03/06 05:39:55;;;;;;;34.73;19.80;;;;;;;;;;5093346;28;20297;-78
2023/03/06 05:42:23;;;;;;;30.77;19.67;;;;;;;;;;5093437;28;20697;-79
2023/03/06 05:44:50;;;;;;;31.50;18.60;;;;;;;;;;5093212;28;20329;-78
2023/03/06 05:47:17;;;;;;;32.83;19.47;;;;;;;;;;5093035;28;20229;-79
2023/03/06 05:49:44;;;;;;;31.07;18.40;;;;;;;;;;5093309;28;20286;-78
2023/03/06 05:52:16;;;;;;;30.70;18.73;;;;;;;;;;5092757;28;20287;-79
2023/03/06 05:54:43;;;;;;;31.17;18.40;;;;;;;;;;5093210;28;20289;-79
2023/03/06 05:57:10;;;;;;;32.33;18.77;;;;;;;;;;5093111;28;20670;-80
2023/03/06 05:59:37;;;;;;;31.20;18.17;;;;;;;;;;5093165;28;20201;-78
2023/03/06 06:02:05;;;;;;;29.27;17.63;;;;;;;;;;5092442;28;20244;-79
2023/03/06 06:04:32;;;;;;;29.33;18.13;;;;;;;;;;5092960;28;20229;-82
2023/03/06 06:07:00;;;;;;;32.17;18.37;;;;;;;;;;5092873;28;20291;-81
2023/03/06 06:09:29;;;;;;;30.83;18.47;;;;;;;;;;5092512;28;20287;-80
2023/03/06 06:11:57;;;;;;;30.90;19.00;;;;;;;;;;5096685;28;20752;-80
2023/03/06 06:14:25;;;;;;;32.17;18.97;;;;;;;;;;5111789;28;20260;-81
2023/03/06 06:16:52;;;;;;;30.00;19.53;;;;;;;;;;5091504;28;20218;-81
2023/03/06 06:19:19;;;;;;;29.53;18.30;;;;;;;;;;5092421;28;20314;-80
2023/03/06 06:21:47;;;;;;;28.00;17.90;;;;;;;;;;5092742;28;20416;-81
2023/03/06 06:24:15;;;;;;;35.27;19.20;;;;;;;;;;5092992;28;20204;-81
2023/03/06 06:26:44;;;;;;;31.77;18.83;;;;;;;;;;5092496;28;20278;-82
2023/03/06 06:29:12;;;;;;;32.40;18.97;;;;;;;;;;5093081;28;20225;-80
2023/03/06 06:31:39;;;;;;;29.50;17.73;;;;;;;;;;5092117;28;20642;-82
2023/03/06 06:34:07;;;;;;;32.77;18.40;;;;;;;;;;5091763;28;20297;-81
2023/03/06 06:36:35;;;;;;;31.30;18.07;;;;;;;;;;5092188;28;20289;-81
2023/03/06 06:39:02;;;;;;;30.53;18.03;;;;;;;;;;5092481;28;20690;-80
2023/03/06 06:41:29;;;;;;;31.60;18.03;;;;;;;;;;5101964;28;20198;-82
2023/03/06 06:43:58;;;;;;;31.07;18.40;;;;;;;;;;5099028;28;20239;-82
2023/03/06 06:46:25;;;;;;;34.30;18.37;;;;;;;;;;5110155;28;20353;-82
2023/03/06 06:48:54;;;;;;;31.20;19.77;;;;;;;;;;5098886;27;20284;-81
2023/03/06 06:51:22;;;;;;;36.83;20.13;;;;;;;;;;5111824;28;20288;-80
2023/03/06 06:53:49;;;;;;;29.23;17.87;;;;;;;;;;5111942;28;20221;-80
2023/03/06 06:56:16;;;;;;;29.23;18.00;;;;;;;;;;5112537;27;20226;-81
2023/03/06 06:58:43;;;;;;;30.10;17.47;;;;;;;;;;5112316;28;20282;-81
2023/03/06 07:01:13;;;;;;;27.90;17.20;;;;;;;;;;5112841;28;20228;-83
2023/03/06 07:03:40;;;;;;;30.67;17.83;;;;;;;;;;5111758;28;20247;-81
2023/03/06 07:06:08;;;;;;;28.93;17.20;;;;;;;;;;5112522;28;20666;-81
2023/03/06 07:08:36;;;;;;;29.00;18.03;;;;;;;;;;5112412;28;20539;-80
2023/03/06 07:11:06;;;;;;;28.33;16.43;;;;;;;;;;5112190;28;20730;-82
2023/03/06 07:13:33;;;;;;;30.47;16.50;;;;;;;;;;5112261;28;20301;-82
2023/03/06 07:16:00;;;;;;;33.80;17.60;;;;;;;;;;5112220;28;20285;-81
2023/03/06 07:18:29;;;;;;;40.60;18.33;;;;;;;;;;5111734;28;20227;-81
2023/03/06 07:20:56;;;;;;;30.83;16.63;;;;;;;;;;5112357;28;20279;-81
2023/03/06 07:23:25;;;;;;;27.80;15.87;;;;;;;;;;5111963;28;20205;-80
2023/03/06 07:25:52;;;;;;;28.80;16.63;;;;;;;;;;5111756;28;20203;-81
2023/03/06 07:28:19;;;;;;;32.67;16.47;;;;;;;;;;5111961;28;20285;-81
2023/03/06 07:30:47;;;;;;;32.90;17.10;;;;;;;;;;5111579;28;20232;-81
2023/03/06 07:33:14;;;;;;;26.40;15.90;;;;;;;;;;5112376;28;20324;-81
2023/03/06 07:35:43;;;;;;;26.23;16.20;;;;;;;;;;5112112;28;20220;-81
2023/03/06 07:38:11;;;;;;;29.40;16.93;;;;;;;;;;5111596;28;20229;-84
2023/03/06 07:40:38;;;;;;;27.27;16.43;;;;;;;;;;5111784;28;20225;-81
2023/03/06 07:43:06;;;;;;;28.30;16.80;;;;;;;;;;5111648;28;20195;-80
2023/03/06 07:45:33;;;;;;;29.97;16.90;;;;;;;;;;5111232;28;20320;-80
2023/03/06 07:48:00;;;;;;;27.63;17.27;;;;;;;;;;5112108;28;20197;-81
2023/03/06 07:50:28;;;;;;;27.57;16.30;;;;;;;;;;5111850;28;20195;-80
2023/03/06 07:52:56;;;;;;;29.23;16.33;;;;;;;;;;5111381;28;20235;-81
2023/03/06 07:55:24;;;;;;;27.93;15.47;;;;;;;;;;5111338;28;20201;-81
2023/03/06 07:57:51;;;;;;;27.07;16.03;;;;;;;;;;5111893;28;20248;-81
2023/03/06 08:00:19;;;;;;;30.00;17.10;;;;;;;;;;5111471;28;20921;-81
2023/03/06 08:02:46;;;;;;;28.13;16.87;;;;;;;;;;5111251;28;20858;-79
2023/03/06 08:05:14;;;;;;;32.63;17.50;;;;;;;;;;5111723;28;20216;-80
2023/03/06 08:07:42;;;;;;;29.77;17.43;;;;;;;;;;5111568;28;20282;-80
2023/03/06 08:10:13;;;;;;;33.67;18.10;;;;;;;;;;5111684;28;20243;-81
2023/03/06 08:12:41;;;;;;;32.73;17.73;;;;;;;;;;5111640;28;20314;-81
2023/03/06 08:15:09;;;;;;;34.70;17.60;;;;;;;;;;5110864;28;20225;-80
2023/03/06 08:17:37;;;;;;;30.13;16.67;;;;;;;;;;5111729;28;20195;-80
2023/03/06 08:20:05;;;;;;;25.70;16.13;;;;;;;;;;5111757;28;20699;-79
2023/03/06 08:22:32;;;;;;;26.27;16.03;;;;;;;;;;5111824;28;20201;-80
2023/03/06 08:24:59;;;;;;;24.63;15.60;;;;;;;;;;5111313;28;20654;-80
2023/03/06 08:27:28;;;;;;;25.93;16.47;;;;;;;;;;5111811;28;20221;-80
2023/03/06 08:29:55;;;;;;;26.93;15.70;;;;;;;;;;5110975;28;20218;-80
2023/03/06 08:32:22;;;;;;;28.10;16.70;;;;;;;;;;5111415;28;20229;-80
2023/03/06 08:34:50;;;;;;;28.60;15.67;;;;;;;;;;5111782;28;20316;-80
2023/03/06 08:37:17;;;;;;;26.00;15.97;;;;;;;;;;5111405;28;20248;-80
2023/03/06 08:39:44;;;;;;;28.10;16.10;;;;;;;;;;5113021;28;20205;-80
2023/03/06 08:42:11;;;;;;;24.73;15.67;;;;;;;;;;5115243;28;20194;-80
2023/03/06 08:44:40;;;;;;;24.57;15.57;;;;;;;;;;5114940;28;20237;-80
2023/03/06 08:47:07;;;;;;;25.33;14.80;;;;;;;;;;5115711;28;20194;-80
2023/03/06 08:49:37;;;;;;;20.87;13.17;;;;;;;;;;5114925;28;20240;-81
2023/03/06 08:52:04;;;;;;;20.97;13.33;;;;;;;;;;5115006;28;20712;-80
2023/03/06 08:54:31;;;;;;;20.67;12.30;;;;;;;;;;5115070;28;20325;-80
2023/03/06 08:56:58;;;;;;;21.33;12.77;;;;;;;;;;5115273;27;20251;-80
2023/03/06 08:59:25;;;;;;;21.17;12.53;;;;;;;;;;5114841;28;20274;-80
2023/03/06 09:01:54;;;;;;;22.70;13.13;;;;;;;;;;5115269;28;20286;-80
2023/03/06 09:04:21;;;;;;;23.40;13.43;;;;;;;;;;5115226;28;20219;-80
2023/03/06 09:06:48;;;;;;;23.97;14.27;;;;;;;;;;5114904;28;20225;-80
2023/03/06 09:09:16;;;;;;;23.57;14.27;;;;;;;;;;5115024;27;20285;-80
2023/03/06 09:11:43;;;;;;;24.90;15.73;;;;;;;;;;5114542;28;20670;-80
2023/03/06 09:14:10;;;;;;;24.13;15.17;;;;;;;;;;5114196;28;20318;-80
2023/03/06 09:16:37;;;;;;;23.60;15.03;;;;;;;;;;5114833;28;20294;-80
2023/03/06 09:19:06;;;;;;;22.10;14.30;;;;;;;;;;5114480;28;20666;-81
2023/03/06 09:21:33;;;;;;;25.60;15.53;;;;;;;;;;5114414;28;20195;-80
2023/03/06 09:24:01;;;;;;;22.80;14.70;;;;;;;;;;5114344;27;20691;-80
2023/03/06 09:26:28;;;;;;;22.40;14.50;;;;;;;;;;5114352;28;20238;-80
2023/03/06 09:28:55;;;;;;;22.20;14.47;;;;;;;;;;5113995;28;20234;-80
2023/03/06 09:31:22;;;;;;;20.60;13.83;;;;;;;;;;5114122;27;20198;-80
2023/03/06 09:33:50;;;;;;;21.57;14.03;;;;;;;;;;5114386;28;20310;-80
2023/03/06 09:36:19;;;;;;;21.93;14.10;;;;;;;;;;5113936;28;20219;-79
2023/03/06 09:38:48;;;;;;;21.50;13.73;;;;;;;;;;5113987;28;20223;-80
2023/03/06 09:41:22;;;;;;;20.47;13.03;;;;;;;;;;5114108;28;20648;-80
2023/03/06 09:43:51;;;;;;;21.07;12.83;;;;;;;;;;5114511;28;20199;-80
2023/03/06 09:46:21;;;;;;;21.27;12.87;;;;;;;;;;5114206;28;20228;-81
2023/03/06 09:48:54;;;;;;;19.67;13.07;;;;;;;;;;5113968;28;20225;-80
2023/03/06 09:51:26;;;;;;;18.50;11.90;;;;;;;;;;5113645;28;20196;-80
2023/03/06 09:53:59;;;;;;;21.60;12.50;;;;;;;;;;5114190;28;20319;-81
2023/03/06 09:56:30;;;;;;;21.17;11.40;;;;;;;;;;5113925;28;20610;-81
2023/03/06 09:59:00;;;;;;;25.07;13.53;;;;;;;;;;5113662;28;20694;-80
2023/03/06 10:01:28;;;;;;;17.70;11.70;;;;;;;;;;5113615;28;20284;-81
2023/03/06 10:03:59;;;;;;;21.10;14.53;;;;;;;;;;5113799;28;20229;-80
2023/03/06 10:06:29;;;;;;;17.27;12.20;;;;;;;;;;5113757;28;20196;-79
2023/03/06 10:08:58;;;;;;;21.77;12.30;;;;;;;;;;5113594;28;20213;-80
2023/03/06 10:11:28;;;;;;;20.90;12.53;;;;;;;;;;5113467;28;20661;-80
2023/03/06 10:14:01;;;;;;;17.00;11.20;;;;;;;;;;5092921;28;20312;-81
2023/03/06 10:16:30;;;;;;;18.63;12.13;;;;;;;;;;5093087;28;20677;-80
2023/03/06 10:19:00;;;;;;;19.50;11.53;;;;;;;;;;5092919;28;20229;-81
2023/03/06 10:21:34;;;;;;;21.63;12.37;;;;;;;;;;5093254;28;20238;-80
2023/03/06 10:24:04;;;;;;;25.47;14.43;;;;;;;;;;5092820;28;20621;-80
2023/03/06 10:26:34;;;;;;;20.80;11.80;;;;;;;;;;5092365;28;20234;-80
2023/03/06 10:29:09;;;;;;;18.27;11.53;;;;;;;;;;5092823;28;20289;-81
2023/03/06 10:31:39;;;;;;;16.77;11.23;;;;;;;;;;5092896;28;20194;-81
2023/03/06 10:34:16;;;;;;;18.37;10.43;;;;;;;;;;5092633;28;20279;-80
2023/03/06 10:36:45;;;;;;;15.37;10.33;;;;;;;;;;5092835;28;20287;-81
2023/03/06 10:39:15;;;;;;;15.07;10.17;;;;;;;;;;5092761;28;20245;-81
2023/03/06 10:41:43;;;;;;;15.67;10.20;;;;;;;;;;5092571;28;20282;-80
2023/03/06 10:44:25;;;;;;;18.23;11.00;;;;;;;;;;5092496;28;20226;-81
2023/03/06 10:46:55;;;;;;;16.43;11.27;;;;;;;;;;5092461;28;20300;-80
2023/03/06 10:49:30;;;;;;;15.00;10.10;;;;;;;;;;5092483;28;20196;-80
2023/03/06 10:52:00;;;;;;;14.80;10.17;;;;;;;;;;5092617;28;20218;-81
2023/03/06 10:54:27;;;;;;;13.67;9.40;;;;;;;;;;5092017;28;20250;-81
2023/03/06 10:56:54;;;;;;;19.03;10.90;;;;;;;;;;5092208;28;20232;-80
2023/03/06 10:59:24;;;;;;;20.10;12.47;;;;;;;;;;5092115;28;20996;-80
2023/03/06 11:01:52;;;;;;;18.23;13.40;;;;;;;;;;5091364;28;20201;-80
2023/03/06 11:04:24;;;;;;;20.37;13.03;;;;;;;;;;5092163;28;20627;-81
2023/03/06 11:07:06;;;;;;;19.90;12.53;;;;;;;;;;5092349;28;20198;-80
2023/03/06 11:09:34;;;;;;;17.90;11.73;;;;;;;;;;5092157;28;20722;-81
2023/03/06 11:12:19;;;;;;;18.10;11.70;;;;;;;;;;5096980;28;20230;-80
2023/03/06 11:14:46;;;;;;;16.70;11.27;;;;;;;;;;5112166;28;20369;-81
2023/03/06 11:17:27;;;;;;;17.63;10.97;;;;;;;;;;5112196;28;20225;-80
2023/03/06 11:20:07;;;;;;;18.57;12.10;;;;;;;;;;5112517;28;20230;-81
2023/03/06 11:22:36;;;;;;;15.83;10.57;;;;;;;;;;5111943;28;20189;-80
2023/03/06 11:25:05;;;;;;;16.63;10.47;;;;;;;;;;5112405;28;20225;-81
2023/03/06 11:27:34;;;;;;;16.17;10.50;;;;;;;;;;5111945;28;20218;-79
2023/03/06 11:30:02;;;;;;;16.30;10.83;;;;;;;;;;5112143;28;20239;-81
2023/03/06 11:32:31;;;;;;;14.93;11.57;;;;;;;;;;5112027;28;20281;-81
2023/03/06 11:34:59;;;;;;;17.27;11.53;;;;;;;;;;5112204;28;20262;-81
2023/03/06 11:37:34;;;;;;;15.63;12.17;;;;;;;;;;5111551;28;20292;-80
2023/03/06 11:40:07;;;;;;;14.57;10.63;;;;;;;;;;5111750;28;20300;-81
2023/03/06 11:42:37;;;;;;;14.03;10.03;;;;;;;;;;5111724;28;20673;-80
2023/03/06 11:45:16;;;;;;;18.27;13.27;;;;;;;;;;5111809;28;20624;-81
2023/03/06 11:47:46;;;;;;;16.73;12.00;;;;;;;;;;5111959;28;20281;-80
2023/03/06 11:50:18;;;;;;;20.27;14.30;;;;;;;;;;5111831;28;20294;-81
2023/03/06 11:52:47;;;;;;;15.67;10.80;;;;;;;;;;5111540;28;20300;-81
2023/03/06 11:55:20;;;;;;;16.93;12.10;;;;;;;;;;5111740;28;20751;-81
2023/03/06 11:57:51;;;;;;;19.67;13.50;;;;;;;;;;5112001;28;20242;-81
2023/03/06 12:00:22;;;;;;;20.60;13.30;;;;;;;;;;5111960;28;20204;-81
2023/03/06 12:03:09;;;;;;;16.33;11.57;;;;;;;;;;5111979;28;20228;-80
2023/03/06 12:05:38;;;;;;;17.37;11.93;;;;;;;;;;5111782;28;20246;-79
2023/03/06 12:08:12;;;;;;;17.53;12.57;;;;;;;;;;5111452;28;20284;-81
2023/03/06 12:10:44;;;;;;;18.30;12.47;;;;;;;;;;5111809;28;20203;-81
2023/03/06 12:13:29;;;;;;;18.60;11.57;;;;;;;;;;5097815;28;20289;-81
2023/03/06 12:16:09;;;;;;;18.50;11.97;;;;;;;;;;5088613;28;20324;-81
2023/03/06 12:18:41;;;;;;;16.30;11.60;;;;;;;;;;5095320;28;20286;-79
2023/03/06 12:21:11;;;;;;;16.57;11.80;;;;;;;;;;5095531;28;20226;-80
2023/03/06 12:23:45;;;;;;;18.60;12.23;;;;;;;;;;5095208;28;20282;-79
2023/03/06 12:26:25;;;;;;;21.17;13.67;;;;;;;;;;5095258;28;20237;-80
2023/03/06 12:29:01;;;;;;;18.93;12.37;;;;;;;;;;5095049;28;20671;-80
2023/03/06 12:31:43;;;;;;;19.80;12.40;;;;;;;;;;5094982;28;20618;-82
2023/03/06 12:34:31;;;;;;;17.63;11.63;;;;;;;;;;5094901;28;20721;-80
2023/03/06 12:37:08;;;;;;;17.93;10.87;;;;;;;;;;5092695;28;20288;-81
2023/03/06 12:39:43;;;;;;;16.90;11.90;;;;;;;;;;5095017;28;20229;-81
2023/03/06 12:42:19;;;;;;;16.80;11.20;;;;;;;;;;5094745;28;20370;-79
2023/03/06 12:45:03;;;;;;;14.33;10.87;;;;;;;;;;5094923;28;20331;-81
2023/03/06 12:47:42;;;;;;;15.57;11.03;;;;;;;;;;5095080;28;20226;-81
2023/03/06 12:50:14;;;;;;;16.90;10.43;;;;;;;;;;5094544;28;20199;-80
2023/03/06 12:52:42;;;;;;;15.63;10.40;;;;;;;;;;5094539;28;20190;-80
2023/03/06 12:55:14;;;;;;;15.60;11.10;;;;;;;;;;5094721;28;20341;-80
2023/03/06 12:57:42;;;;;;;16.00;10.57;;;;;;;;;;5094861;28;20201;-81
2023/03/06 13:00:12;;;;;;;13.90;10.37;;;;;;;;;;5094526;28;20281;-81
2023/03/06 13:02:50;;;;;;;15.83;11.20;;;;;;;;;;5094811;28;20289;-81
2023/03/06 13:05:29;;;;;;;17.70;11.10;;;;;;;;;;5094090;28;20292;-81
2023/03/06 13:08:05;;;;;;;18.50;11.73;;;;;;;;;;5094545;28;20281;-81
2023/03/06 13:10:33;;;;;;;15.27;10.33;;;;;;;;;;5094819;28;20222;-81
2023/03/06 13:13:03;;;;;;;13.67;10.07;;;;;;;;;;5107657;28;20228;-81
2023/03/06 13:15:39;;;;;;;17.07;11.00;;;;;;;;;;5114493;28;20255;-81
2023/03/06 13:18:30;;;;;;;16.83;11.43;;;;;;;;;;5114915;28;20288;-81
2023/03/06 13:20:57;;;;;;;16.97;10.83;;;;;;;;;;5108932;28;20286;-81
2023/03/06 13:23:43;;;;;;;15.70;10.90;;;;;;;;;;5114160;28;20289;-81
2023/03/06 13:26:11;;;;;;;16.63;10.83;;;;;;;;;;5114178;27;20263;-81
2023/03/06 13:28:43;;;;;;;15.17;10.60;;;;;;;;;;5114644;28;20278;-82
2023/03/06 13:31:10;;;;;;;14.70;10.57;;;;;;;;;;5114423;28;20284;-80
2023/03/06 13:33:56;;;;;;;14.53;10.47;;;;;;;;;;5114029;28;20296;-81
2023/03/06 13:36:28;;;;;;;13.73;9.90;;;;;;;;;;5114138;28;20229;-81
2023/03/06 13:39:06;;;;;;;14.13;10.90;;;;;;;;;;5114307;28;20198;-81
2023/03/06 13:41:44;;;;;;;14.40;10.33;;;;;;;;;;5114232;28;20240;-81
2023/03/06 13:44:35;;;;;;;14.90;10.13;;;;;;;;;;5114353;27;20278;-81
2023/03/06 13:47:06;;;;;;;15.70;10.10;;;;;;;;;;5108240;28;20280;-81
2023/03/06 13:49:34;;;;;;;16.60;10.70;;;;;;;;;;5113480;28;20650;-81
2023/03/06 13:52:06;;;;;;;15.67;10.37;;;;;;;;;;5113875;28;20731;-82
2023/03/06 13:54:40;;;;;;;15.37;10.10;;;;;;;;;;5113695;28;20246;-81
2023/03/06 13:57:18;;;;;;;14.43;10.47;;;;;;;;;;5113901;28;20290;-82
2023/03/06 14:00:10;;;;;;;15.07;10.07;;;;;;;;;;5114260;28;20296;-80
2023/03/06 14:02:54;;;;;;;14.03;10.13;;;;;;;;;;5070177;28;20195;-81
2023/03/06 14:05:22;;;;;;;15.07;10.80;;;;;;;;;;5070635;28;20244;-81
2023/03/06 14:07:50;;;;;;;16.20;11.13;;;;;;;;;;5070549;28;20654;-82
2023/03/06 14:10:20;;;;;;;16.03;9.97;;;;;;;;;;5070567;28;20289;-81
2023/03/06 14:13:08;;;;;;;15.53;10.10;;;;;;;;;;5070688;28;20290;-81
2023/03/06 14:15:43;;;;;;;15.17;10.83;;;;;;;;;;5065730;28;20310;-79
2023/03/06 14:18:17;;;;;;;14.60;10.43;;;;;;;;;;5069959;28;20220;-81
2023/03/06 14:20:45;;;;;;;13.63;10.37;;;;;;;;;;5070379;28;20755;-81
2023/03/06 14:23:16;;;;;;;13.63;9.93;;;;;;;;;;5070364;28;20302;-81
2023/03/06 14:25:45;;;;;;;12.20;9.53;;;;;;;;;;5070252;28;20191;-81
2023/03/06 14:28:22;;;;;;;15.07;9.77;;;;;;;;;;5069818;28;20734;-81
2023/03/06 14:30:50;;;;;;;13.67;10.07;;;;;;;;;;5070315;28;20244;-81